createdAt,value
2018-09-08T00:00:12.359Z,0.00
2018-09-08T00:01:12.330Z,0.00
2018-09-08T00:02:12.304Z,0.00
2018-09-08T00:03:12.278Z,0.00
2018-09-08T00:04:12.252Z,0.00
2018-09-08T00:05:12.226Z,0.00
2018-09-08T00:06:12.198Z,0.00
2018-09-08T00:07:12.172Z,0.00
2018-09-08T00:08:12.147Z,0.00
2018-09-08T00:09:12.120Z,0.00
2018-09-08T00:10:12.092Z,0.00
2018-09-08T00:11:12.066Z,0.00
2018-09-08T00:12:12.042Z,0.00
2018-09-08T00:13:12.015Z,0.00
2018-09-08T00:14:11.989Z,0.00
2018-09-08T00:15:11.962Z,0.00
2018-09-08T00:16:11.936Z,0.00
2018-09-08T00:17:11.909Z,0.00
2018-09-08T00:18:11.883Z,0.00
2018-09-08T00:19:11.856Z,0.00
2018-09-08T00:20:11.831Z,0.00
2018-09-08T00:21:11.807Z,0.00
2018-09-08T00:22:11.779Z,0.00
2018-09-08T00:23:11.751Z,0.00
2018-09-08T00:24:11.726Z,0.00
2018-09-08T00:25:11.699Z,0.00
2018-09-08T00:26:11.673Z,0.00
2018-09-08T00:27:11.646Z,0.00
2018-09-08T00:28:11.619Z,0.00
2018-09-08T00:29:11.594Z,0.00
2018-09-08T00:30:11.567Z,0.00
2018-09-08T00:31:11.543Z,0.00
2018-09-08T00:32:11.514Z,0.00
2018-09-08T00:33:11.489Z,0.00
2018-09-08T00:34:11.462Z,0.00
2018-09-08T00:35:11.436Z,0.00
2018-09-08T00:36:11.410Z,0.00
2018-09-08T00:37:11.383Z,0.00
2018-09-08T00:38:11.357Z,0.00
2018-09-08T00:39:11.330Z,0.00
2018-09-08T00:40:11.304Z,0.00
2018-09-08T00:41:11.281Z,0.00
2018-09-08T00:42:11.249Z,0.00
2018-09-08T00:43:11.225Z,0.00
2018-09-08T00:44:11.198Z,0.00
2018-09-08T00:45:11.172Z,0.00
2018-09-08T00:46:11.148Z,0.00
2018-09-08T00:47:11.121Z,0.00
2018-09-08T00:48:11.093Z,0.00
2018-09-08T00:49:11.067Z,0.00
2018-09-08T00:50:11.040Z,0.00
2018-09-08T00:51:11.015Z,0.00
2018-09-08T00:52:10.987Z,0.00
2018-09-08T00:53:10.962Z,0.00
2018-09-08T00:54:10.935Z,0.00
2018-09-08T00:55:10.911Z,0.00
2018-09-08T00:56:10.882Z,0.00
2018-09-08T00:57:10.858Z,0.00
2018-09-08T00:58:10.829Z,0.00
2018-09-08T00:59:10.839Z,0.00
2018-09-08T01:00:10.776Z,0.00
2018-09-08T01:01:10.751Z,0.00
2018-09-08T01:02:10.729Z,0.00
2018-09-08T01:03:10.698Z,0.00
2018-09-08T01:04:10.671Z,0.00
2018-09-08T01:05:10.644Z,0.00
2018-09-08T01:06:10.618Z,0.00
2018-09-08T01:07:10.593Z,0.00
2018-09-08T01:08:10.566Z,0.00
2018-09-08T01:09:10.540Z,0.00
2018-09-08T01:10:10.511Z,0.00
2018-09-08T01:11:10.487Z,0.00
2018-09-08T01:12:10.458Z,0.00
2018-09-08T01:13:10.431Z,0.00
2018-09-08T01:14:10.405Z,0.00
2018-09-08T01:15:10.379Z,0.00
2018-09-08T01:16:10.352Z,0.00
2018-09-08T01:17:10.333Z,0.00
2018-09-08T01:18:10.298Z,0.00
2018-09-08T01:19:10.272Z,0.00
2018-09-08T01:20:10.245Z,0.00
2018-09-08T01:21:10.219Z,0.00
2018-09-08T01:22:10.192Z,0.00
2018-09-08T01:23:10.167Z,0.00
2018-09-08T01:24:10.139Z,0.00
2018-09-08T01:25:10.114Z,0.00
2018-09-08T01:26:10.086Z,0.00
2018-09-08T01:27:10.060Z,0.00
2018-09-08T01:28:10.034Z,0.00
2018-09-08T01:29:10.011Z,0.00
2018-09-08T01:30:09.980Z,0.00
2018-09-08T01:31:09.954Z,0.00
2018-09-08T01:32:09.925Z,0.00
2018-09-08T01:33:09.900Z,0.00
2018-09-08T01:34:09.873Z,0.00
2018-09-08T01:35:09.845Z,0.00
2018-09-08T01:36:09.819Z,0.00
2018-09-08T01:37:09.794Z,0.00
2018-09-08T01:38:09.765Z,0.00
2018-09-08T01:39:09.739Z,0.00
2018-09-08T01:40:09.712Z,0.00
2018-09-08T01:41:09.685Z,0.00
2018-09-08T01:42:09.661Z,0.00
2018-09-08T01:43:09.631Z,0.00
2018-09-08T01:44:09.605Z,0.00
2018-09-08T01:45:09.579Z,0.00
2018-09-08T01:46:09.551Z,0.00
2018-09-08T01:47:09.525Z,0.00
2018-09-08T01:48:09.496Z,0.00
2018-09-08T01:49:09.470Z,0.00
2018-09-08T01:50:09.447Z,0.00
2018-09-08T01:51:09.417Z,0.00
2018-09-08T01:52:09.390Z,0.00
2018-09-08T01:53:09.364Z,0.00
2018-09-08T01:54:09.334Z,0.00
2018-09-08T01:55:09.310Z,0.00
2018-09-08T01:56:09.283Z,0.00
2018-09-08T01:57:09.257Z,0.00
2018-09-08T01:58:09.228Z,0.00
2018-09-08T01:59:09.200Z,0.00
2018-09-08T02:00:09.175Z,0.00
2018-09-08T02:01:09.148Z,0.00
2018-09-08T02:02:09.127Z,0.00
2018-09-08T02:03:09.094Z,0.00
2018-09-08T02:04:09.067Z,0.00
2018-09-08T02:05:09.040Z,0.00
2018-09-08T02:06:09.013Z,0.00
2018-09-08T02:07:08.986Z,0.00
2018-09-08T02:08:08.958Z,0.00
2018-09-08T02:09:08.933Z,0.00
2018-09-08T02:10:08.903Z,0.00
2018-09-08T02:11:08.877Z,0.00
2018-09-08T02:12:08.852Z,0.00
2018-09-08T02:13:08.826Z,0.00
2018-09-08T02:14:08.795Z,0.00
2018-09-08T02:15:08.769Z,0.00
2018-09-08T02:16:08.742Z,0.00
2018-09-08T02:17:08.715Z,0.00
2018-09-08T02:18:08.688Z,0.00
2018-09-08T02:19:08.662Z,0.00
2018-09-08T02:20:08.636Z,0.00
2018-09-08T02:21:08.608Z,0.00
2018-09-08T02:22:08.582Z,0.00
2018-09-08T02:23:08.553Z,0.00
2018-09-08T02:24:08.525Z,0.00
2018-09-08T02:25:08.499Z,0.00
2018-09-08T02:26:08.472Z,0.00
2018-09-08T02:27:08.444Z,0.00
2018-09-08T02:28:08.419Z,0.00
2018-09-08T02:29:08.390Z,0.00
2018-09-08T02:30:08.363Z,0.00
2018-09-08T02:31:08.336Z,0.00
2018-09-08T02:32:08.309Z,0.00
2018-09-08T02:33:08.281Z,0.00
2018-09-08T02:34:08.255Z,0.00
2018-09-08T02:35:08.229Z,0.00
2018-09-08T02:36:08.201Z,0.00
2018-09-08T02:37:08.174Z,0.00
2018-09-08T02:38:08.149Z,0.00
2018-09-08T02:39:08.119Z,0.00
2018-09-08T02:40:08.093Z,0.00
2018-09-08T02:41:08.066Z,0.00
2018-09-08T02:42:08.038Z,0.00
2018-09-08T02:43:08.012Z,0.00
2018-09-08T02:44:07.984Z,0.00
2018-09-08T02:45:07.956Z,0.00
2018-09-08T02:46:07.929Z,0.00
2018-09-08T02:47:07.901Z,0.00
2018-09-08T02:48:07.877Z,0.00
2018-09-08T02:49:07.849Z,0.00
2018-09-08T02:50:07.820Z,0.00
2018-09-08T02:51:07.793Z,0.00
2018-09-08T02:52:07.767Z,0.00
2018-09-08T02:53:07.741Z,0.00
2018-09-08T02:54:07.715Z,0.00
2018-09-08T02:55:07.685Z,0.00
2018-09-08T02:56:07.658Z,0.00
2018-09-08T02:57:07.632Z,0.00
2018-09-08T02:58:07.604Z,0.00
2018-09-08T02:59:07.577Z,0.00
2018-09-08T03:00:07.550Z,0.00
2018-09-08T03:01:07.538Z,0.00
2018-09-08T03:02:07.497Z,0.00
2018-09-08T03:03:07.470Z,0.00
2018-09-08T03:04:07.442Z,0.00
2018-09-08T03:05:07.416Z,0.00
2018-09-08T03:06:07.389Z,0.00
2018-09-08T03:07:07.360Z,0.00
2018-09-08T03:08:07.334Z,0.00
2018-09-08T03:09:07.309Z,0.00
2018-09-08T03:10:07.280Z,0.00
2018-09-08T03:11:07.255Z,0.00
2018-09-08T03:12:07.226Z,0.00
2018-09-08T03:13:07.201Z,0.00
2018-09-08T03:14:07.172Z,0.00
2018-09-08T03:15:07.146Z,0.00
2018-09-08T03:16:07.119Z,0.00
2018-09-08T03:17:07.092Z,0.00
2018-09-08T03:18:07.067Z,0.00
2018-09-08T03:19:07.038Z,0.00
2018-09-08T03:20:07.013Z,0.00
2018-09-08T03:21:06.986Z,0.00
2018-09-08T03:22:06.957Z,0.00
2018-09-08T03:23:06.931Z,0.00
2018-09-08T03:24:06.904Z,0.00
2018-09-08T03:25:06.884Z,0.00
2018-09-08T03:26:06.849Z,0.00
2018-09-08T03:27:06.824Z,0.00
2018-09-08T03:28:06.798Z,0.00
2018-09-08T03:29:06.772Z,0.00
2018-09-08T03:30:06.749Z,0.00
2018-09-08T03:31:06.717Z,0.00
2018-09-08T03:32:06.694Z,0.00
2018-09-08T03:33:06.664Z,0.00
2018-09-08T03:34:06.638Z,0.00
2018-09-08T03:35:06.611Z,0.00
2018-09-08T03:36:06.585Z,0.00
2018-09-08T03:37:06.559Z,0.00
2018-09-08T03:38:06.529Z,0.00
2018-09-08T03:39:06.506Z,0.00
2018-09-08T03:40:06.477Z,0.00
2018-09-08T03:41:06.450Z,0.00
2018-09-08T03:42:06.422Z,0.00
2018-09-08T03:43:06.397Z,0.00
2018-09-08T03:44:06.369Z,0.00
2018-09-08T03:45:06.346Z,0.00
2018-09-08T03:46:06.316Z,0.00
2018-09-08T03:47:06.291Z,0.00
2018-09-08T03:48:06.263Z,0.00
2018-09-08T03:49:06.236Z,0.00
2018-09-08T03:50:06.208Z,0.00
2018-09-08T03:51:06.182Z,0.00
2018-09-08T03:52:06.162Z,0.00
2018-09-08T03:53:06.130Z,0.00
2018-09-08T03:54:06.105Z,0.00
2018-09-08T03:55:06.080Z,0.00
2018-09-08T03:56:06.048Z,0.00
2018-09-08T03:57:06.023Z,0.00
2018-09-08T03:58:05.994Z,0.00
2018-09-08T03:59:06.053Z,0.00
2018-09-08T04:00:05.942Z,0.00
2018-09-08T04:01:05.914Z,0.00
2018-09-08T04:02:05.889Z,0.00
2018-09-08T04:03:05.860Z,0.00
2018-09-08T04:04:05.834Z,0.00
2018-09-08T04:05:05.808Z,0.00
2018-09-08T04:06:05.780Z,0.00
2018-09-08T04:07:05.756Z,0.00
2018-09-08T04:08:05.727Z,0.00
2018-09-08T04:09:05.708Z,0.00
2018-09-08T04:10:05.674Z,0.00
2018-09-08T04:11:05.652Z,0.00
2018-09-08T04:12:05.621Z,0.00
2018-09-08T04:13:05.595Z,0.00
2018-09-08T04:14:05.566Z,0.00
2018-09-08T04:15:05.542Z,0.00
2018-09-08T04:16:05.515Z,0.00
2018-09-08T04:17:05.491Z,0.00
2018-09-08T04:18:05.525Z,0.00
2018-09-08T04:19:05.433Z,0.00
2018-09-08T04:20:05.409Z,0.00
2018-09-08T04:21:05.381Z,0.00
2018-09-08T04:22:05.353Z,0.00
2018-09-08T04:23:05.327Z,5.63
2018-09-08T04:24:05.349Z,5.63
2018-09-08T04:25:05.274Z,5.63
2018-09-08T04:26:05.248Z,5.63
2018-09-08T04:27:05.220Z,5.63
2018-09-08T04:28:05.193Z,5.63
2018-09-08T04:29:05.167Z,11.25
2018-09-08T04:30:05.139Z,11.25
2018-09-08T04:31:05.114Z,11.25
2018-09-08T04:32:05.086Z,11.25
2018-09-08T04:33:05.060Z,16.88
2018-09-08T04:34:05.033Z,16.88
2018-09-08T04:35:05.007Z,16.88
2018-09-08T04:36:04.979Z,22.50
2018-09-08T04:37:04.953Z,22.50
2018-09-08T04:38:04.929Z,22.50
2018-09-08T04:39:04.900Z,28.13
2018-09-08T04:40:04.873Z,28.13
2018-09-08T04:41:04.855Z,33.75
2018-09-08T04:42:04.818Z,33.75
2018-09-08T04:43:04.792Z,39.38
2018-09-08T04:44:04.766Z,39.38
2018-09-08T04:45:04.740Z,39.38
2018-09-08T04:46:04.712Z,45.00
2018-09-08T04:47:04.687Z,45.00
2018-09-08T04:48:04.658Z,50.63
2018-09-08T04:49:04.680Z,50.63
2018-09-08T04:50:04.606Z,56.25
2018-09-08T04:51:04.579Z,56.25
2018-09-08T04:52:04.552Z,61.88
2018-09-08T04:53:04.526Z,67.50
2018-09-08T04:54:04.500Z,67.50
2018-09-08T04:55:04.474Z,73.13
2018-09-08T04:56:04.446Z,73.13
2018-09-08T04:57:04.420Z,78.75
2018-09-08T04:58:04.395Z,84.38
2018-09-08T04:59:04.366Z,84.38
2018-09-08T05:00:04.340Z,90.00
2018-09-08T05:01:04.314Z,90.00
2018-09-08T05:02:04.285Z,95.63
2018-09-08T05:03:04.261Z,101.25
2018-09-08T05:04:04.234Z,101.25
2018-09-08T05:05:04.209Z,106.88
2018-09-08T05:06:04.183Z,106.88
2018-09-08T05:07:04.154Z,112.50
2018-09-08T05:08:04.129Z,118.13
2018-09-08T05:09:04.116Z,118.13
2018-09-08T05:10:04.078Z,123.75
2018-09-08T05:11:04.049Z,129.38
2018-09-08T05:12:04.066Z,129.38
2018-09-08T05:13:03.997Z,135.00
2018-09-08T05:14:03.970Z,140.63
2018-09-08T05:15:03.943Z,140.63
2018-09-08T05:16:03.916Z,146.25
2018-09-08T05:17:03.900Z,146.25
2018-09-08T05:18:03.863Z,151.88
2018-09-08T05:19:03.837Z,157.50
2018-09-08T05:20:03.813Z,157.50
2018-09-08T05:21:03.786Z,163.13
2018-09-08T05:22:03.757Z,168.75
2018-09-08T05:23:03.734Z,168.75
2018-09-08T05:24:03.707Z,168.75
2018-09-08T05:25:03.681Z,174.38
2018-09-08T05:26:03.657Z,174.38
2018-09-08T05:27:03.630Z,180.00
2018-09-08T05:28:03.601Z,185.63
2018-09-08T05:29:03.576Z,185.63
2018-09-08T05:30:03.549Z,191.25
2018-09-08T05:31:03.526Z,191.25
2018-09-08T05:32:03.496Z,202.50
2018-09-08T05:33:03.472Z,281.25
2018-09-08T05:34:03.444Z,348.75
2018-09-08T05:35:03.445Z,354.38
2018-09-08T05:36:03.393Z,371.25
2018-09-08T05:37:03.369Z,382.50
2018-09-08T05:38:03.342Z,388.13
2018-09-08T05:39:03.317Z,382.50
2018-09-08T05:40:03.295Z,393.75
2018-09-08T05:41:03.269Z,410.63
2018-09-08T05:42:03.243Z,433.13
2018-09-08T05:43:03.234Z,438.75
2018-09-08T05:44:03.194Z,438.75
2018-09-08T05:45:03.170Z,455.63
2018-09-08T05:46:03.145Z,478.13
2018-09-08T05:47:03.121Z,483.75
2018-09-08T05:48:03.099Z,472.50
2018-09-08T05:49:03.076Z,483.75
2018-09-08T05:50:03.051Z,506.25
2018-09-08T05:51:03.029Z,517.50
2018-09-08T05:52:03.008Z,523.13
2018-09-08T05:53:02.988Z,523.13
2018-09-08T05:54:02.961Z,528.75
2018-09-08T05:55:02.940Z,551.25
2018-09-08T05:56:02.919Z,562.50
2018-09-08T05:57:02.899Z,573.75
2018-09-08T05:58:02.873Z,568.13
2018-09-08T05:59:02.852Z,562.50
2018-09-08T06:00:02.830Z,579.38
2018-09-08T06:01:02.810Z,624.38
2018-09-08T06:02:02.787Z,663.75
2018-09-08T06:03:02.770Z,663.75
2018-09-08T06:04:02.746Z,618.75
2018-09-08T06:05:02.725Z,585.00
2018-09-08T06:06:02.704Z,590.63
2018-09-08T06:07:02.683Z,641.25
2018-09-08T06:08:02.663Z,697.50
2018-09-08T06:09:02.641Z,731.25
2018-09-08T06:10:02.620Z,725.63
2018-09-08T06:11:02.599Z,725.63
2018-09-08T06:12:02.581Z,759.38
2018-09-08T06:13:02.561Z,798.75
2018-09-08T06:14:02.539Z,810.00
2018-09-08T06:15:02.531Z,798.75
2018-09-08T06:16:02.499Z,776.25
2018-09-08T06:17:02.479Z,776.25
2018-09-08T06:18:02.459Z,787.50
2018-09-08T06:19:02.440Z,815.63
2018-09-08T06:20:02.420Z,860.63
2018-09-08T06:21:02.400Z,894.38
2018-09-08T06:22:02.379Z,911.25
2018-09-08T06:23:02.359Z,916.88
2018-09-08T06:24:02.341Z,911.25
2018-09-08T06:25:02.320Z,894.38
2018-09-08T06:26:02.302Z,911.25
2018-09-08T06:27:02.282Z,922.50
2018-09-08T06:28:02.262Z,939.38
2018-09-08T06:29:02.244Z,945.00
2018-09-08T06:30:02.223Z,973.13
2018-09-08T06:31:02.205Z,1023.75
2018-09-08T06:32:02.186Z,1057.50
2018-09-08T06:33:02.166Z,1051.88
2018-09-08T06:34:02.147Z,1001.25
2018-09-08T06:35:02.186Z,978.75
2018-09-08T06:36:02.110Z,1012.50
2018-09-08T06:37:02.090Z,1046.25
2018-09-08T06:38:02.073Z,1074.38
2018-09-08T06:39:02.055Z,1080.00
2018-09-08T06:40:02.034Z,1102.50
2018-09-08T06:41:02.017Z,1141.88
2018-09-08T06:42:01.999Z,1141.88
2018-09-08T06:43:01.977Z,1125.00
2018-09-08T06:44:01.958Z,1119.38
2018-09-08T06:45:02.064Z,1108.13
2018-09-08T06:46:01.922Z,1175.63
2018-09-08T06:47:01.905Z,1192.50
2018-09-08T06:48:01.887Z,1164.38
2018-09-08T06:49:01.868Z,922.50
2018-09-08T06:50:01.850Z,1035.00
2018-09-08T06:51:01.832Z,928.13
2018-09-08T06:52:01.817Z,984.38
2018-09-08T06:53:01.794Z,990.00
2018-09-08T06:54:01.773Z,911.25
2018-09-08T06:55:01.757Z,1035.00
2018-09-08T06:56:01.738Z,1012.50
2018-09-08T06:57:01.720Z,1108.13
2018-09-08T06:58:01.812Z,1063.13
2018-09-08T06:59:01.681Z,1051.88
2018-09-08T07:00:01.664Z,1226.25
2018-09-08T07:01:01.644Z,1130.63
2018-09-08T07:02:01.625Z,1254.38
2018-09-08T07:03:01.612Z,1181.25
2018-09-08T07:04:01.587Z,1175.63
2018-09-08T07:05:01.568Z,1170.00
2018-09-08T07:06:01.549Z,1209.38
2018-09-08T07:07:01.530Z,1198.13
2018-09-08T07:08:01.517Z,1203.75
2018-09-08T07:09:01.495Z,1192.50
2018-09-08T07:10:01.477Z,1192.50
2018-09-08T07:11:01.456Z,1096.88
2018-09-08T07:12:01.439Z,1125.00
2018-09-08T07:13:01.420Z,1192.50
2018-09-08T07:14:01.401Z,1215.00
2018-09-08T07:15:01.405Z,1186.88
2018-09-08T07:16:01.364Z,1237.50
2018-09-08T07:17:01.357Z,1254.38
2018-09-08T07:18:01.329Z,1406.25
2018-09-08T07:19:01.309Z,1445.63
2018-09-08T07:20:01.291Z,1417.50
2018-09-08T07:21:01.275Z,1361.25
2018-09-08T07:22:01.254Z,1316.25
2018-09-08T07:23:01.237Z,1299.38
2018-09-08T07:24:01.219Z,1333.13
2018-09-08T07:25:01.263Z,1378.13
2018-09-08T07:26:01.183Z,1428.75
2018-09-08T07:27:01.163Z,1462.50
2018-09-08T07:28:01.146Z,1524.38
2018-09-08T07:29:01.128Z,1575.00
2018-09-08T07:30:01.109Z,1507.50
2018-09-08T07:31:01.108Z,1620.00
2018-09-08T07:32:01.077Z,1636.88
2018-09-08T07:33:01.060Z,1608.75
2018-09-08T07:34:01.039Z,1603.13
2018-09-08T07:35:01.021Z,1625.63
2018-09-08T07:36:01.004Z,1636.88
2018-09-08T07:37:00.986Z,1676.25
2018-09-08T07:38:00.967Z,1856.25
2018-09-08T07:39:00.951Z,2120.63
2018-09-08T07:40:00.937Z,2210.63
2018-09-08T07:41:00.916Z,1265.63
2018-09-08T07:42:00.902Z,1164.38
2018-09-08T07:43:00.882Z,2182.50
2018-09-08T07:44:00.864Z,1440.00
2018-09-08T07:45:00.849Z,1192.50
2018-09-08T07:46:00.877Z,1074.38
2018-09-08T07:47:00.813Z,1108.13
2018-09-08T07:48:00.796Z,1524.38
2018-09-08T07:49:00.778Z,2025.00
2018-09-08T07:50:00.756Z,1698.75
2018-09-08T07:51:00.742Z,1125.00
2018-09-08T07:52:00.724Z,2356.88
2018-09-08T07:53:00.705Z,1293.75
2018-09-08T07:54:00.708Z,1428.75
2018-09-08T07:55:00.669Z,990.00
2018-09-08T07:56:00.652Z,871.88
2018-09-08T07:57:00.635Z,1288.13
2018-09-08T07:58:00.615Z,810.00
2018-09-08T07:59:00.597Z,2075.63
2018-09-08T08:00:00.580Z,2109.38
2018-09-08T08:01:00.561Z,2120.63
2018-09-08T08:02:00.543Z,916.88
2018-09-08T08:03:00.524Z,1018.13
2018-09-08T08:04:00.506Z,1243.13
2018-09-08T08:05:00.491Z,1293.75
2018-09-08T08:06:00.468Z,1980.00
2018-09-08T08:07:00.449Z,1631.25
2018-09-08T08:08:00.433Z,1136.25
2018-09-08T08:09:00.412Z,1912.50
2018-09-08T08:10:00.393Z,1535.63
2018-09-08T08:11:00.376Z,1366.88
2018-09-08T08:12:00.358Z,1890.00
2018-09-08T08:13:00.341Z,1890.00
2018-09-08T08:14:00.322Z,1749.38
2018-09-08T08:15:00.304Z,1687.50
2018-09-08T08:16:00.288Z,1704.38
2018-09-08T08:17:00.269Z,2115.00
2018-09-08T08:18:00.250Z,2115.00
2018-09-08T08:19:00.235Z,2109.38
2018-09-08T08:20:00.217Z,2086.88
2018-09-08T08:21:00.203Z,1951.88
2018-09-08T08:22:00.183Z,1816.88
2018-09-08T08:23:00.166Z,1698.75
2018-09-08T08:24:00.148Z,1828.13
2018-09-08T08:25:00.132Z,1895.63
2018-09-08T08:26:00.113Z,1912.50
2018-09-08T08:27:00.097Z,2013.75
2018-09-08T08:28:00.081Z,2092.50
2018-09-08T08:29:00.066Z,2109.38
2018-09-08T08:30:00.045Z,2053.13
2018-09-08T08:31:00.085Z,2075.63
2018-09-08T08:32:00.012Z,2058.75
2018-09-08T08:32:59.996Z,2025.00
2018-09-08T08:33:59.977Z,1996.88
2018-09-08T08:34:59.962Z,1873.13
2018-09-08T08:35:59.943Z,1884.38
2018-09-08T08:36:59.926Z,1890.00
2018-09-08T08:37:59.908Z,1918.13
2018-09-08T08:38:59.891Z,1856.25
2018-09-08T08:39:59.880Z,1822.50
2018-09-08T08:40:59.859Z,1901.25
2018-09-08T08:41:59.840Z,2025.00
2018-09-08T08:42:59.824Z,2081.25
2018-09-08T08:43:59.806Z,2154.38
2018-09-08T08:44:59.790Z,2086.88
2018-09-08T08:45:59.774Z,2058.75
2018-09-08T08:46:59.757Z,2002.50
2018-09-08T08:47:59.742Z,1029.38
2018-09-08T08:48:59.723Z,1558.13
2018-09-08T08:49:59.711Z,2081.25
2018-09-08T08:50:59.690Z,2081.25
2018-09-08T08:51:59.674Z,939.38
2018-09-08T08:52:59.657Z,2041.88
2018-09-08T08:53:59.640Z,759.38
2018-09-08T08:54:59.625Z,2092.50
2018-09-08T08:55:59.607Z,753.75
2018-09-08T08:56:59.590Z,1040.63
2018-09-08T08:57:59.573Z,753.75
2018-09-08T08:58:59.558Z,2238.75
2018-09-08T08:59:59.539Z,2340.00
2018-09-08T09:00:59.523Z,2418.75
2018-09-08T09:01:59.505Z,2362.50
2018-09-08T09:02:59.489Z,2362.50
2018-09-08T09:03:59.471Z,2385.00
2018-09-08T09:04:59.455Z,2452.50
2018-09-08T09:05:59.436Z,2356.88
2018-09-08T09:06:59.423Z,2053.13
2018-09-08T09:07:59.404Z,2345.63
2018-09-08T09:08:59.386Z,2345.63
2018-09-08T09:09:59.371Z,2300.63
2018-09-08T09:10:59.354Z,2272.50
2018-09-08T09:11:59.340Z,2255.63
2018-09-08T09:12:59.442Z,2289.38
2018-09-08T09:13:59.305Z,2300.63
2018-09-08T09:14:59.288Z,2340.00
2018-09-08T09:15:59.274Z,2340.00
2018-09-08T09:16:59.257Z,2345.63
2018-09-08T09:17:59.239Z,2401.88
2018-09-08T09:18:59.701Z,641.25
2018-09-08T09:19:59.211Z,2283.75
2018-09-08T09:20:59.192Z,2120.63
2018-09-08T09:21:59.175Z,2278.13
2018-09-08T09:22:59.158Z,2255.63
2018-09-08T09:23:59.160Z,1141.88
2018-09-08T09:24:59.183Z,2340.00
2018-09-08T09:25:59.109Z,2340.00
2018-09-08T09:26:59.092Z,2390.63
2018-09-08T09:27:59.075Z,2283.75
2018-09-08T09:28:59.060Z,2345.63
2018-09-08T09:29:59.041Z,2368.13
2018-09-08T09:30:59.026Z,2390.63
2018-09-08T09:31:59.010Z,2441.25
2018-09-08T09:32:58.994Z,2435.63
2018-09-08T09:33:58.977Z,1012.50
2018-09-08T09:34:58.961Z,843.75
2018-09-08T09:35:58.948Z,1091.25
2018-09-08T09:36:58.932Z,2368.13
2018-09-08T09:37:58.915Z,2334.38
2018-09-08T09:38:58.899Z,2255.63
2018-09-08T09:39:58.882Z,1923.75
2018-09-08T09:40:58.867Z,2418.75
2018-09-08T09:41:58.851Z,2542.50
2018-09-08T09:42:58.834Z,2176.88
2018-09-08T09:43:58.821Z,2610.00
2018-09-08T09:44:58.803Z,2593.13
2018-09-08T09:45:58.787Z,2604.38
2018-09-08T09:46:58.772Z,2615.63
2018-09-08T09:47:58.760Z,2655.00
2018-09-08T09:48:58.740Z,2694.38
2018-09-08T09:49:58.727Z,2553.75
2018-09-08T09:50:58.708Z,2576.25
2018-09-08T09:51:58.693Z,2705.63
2018-09-08T09:52:58.709Z,2570.63
2018-09-08T09:53:58.661Z,1710.00
2018-09-08T09:54:58.646Z,894.38
2018-09-08T09:55:58.632Z,1743.75
2018-09-08T09:56:58.618Z,2019.38
2018-09-08T09:57:58.600Z,1006.88
2018-09-08T09:58:58.587Z,1035.00
2018-09-08T09:59:58.570Z,1164.38
2018-09-08T10:00:58.576Z,2986.88
2018-09-08T10:01:58.538Z,1271.25
2018-09-08T10:02:58.521Z,1209.38
2018-09-08T10:03:58.510Z,2806.88
2018-09-08T10:04:58.489Z,1260.00
2018-09-08T10:05:58.490Z,1968.75
2018-09-08T10:06:58.454Z,1822.50
2018-09-08T10:07:58.446Z,1558.13
2018-09-08T10:08:58.423Z,2328.75
2018-09-08T10:09:58.406Z,3082.50
2018-09-08T10:10:58.388Z,1535.63
2018-09-08T10:11:58.401Z,1276.88
2018-09-08T10:12:58.357Z,1209.38
2018-09-08T10:13:58.339Z,1299.38
2018-09-08T10:14:58.323Z,1631.25
2018-09-08T10:15:58.306Z,1783.13
2018-09-08T10:16:58.297Z,2773.13
2018-09-08T10:17:58.273Z,1445.63
2018-09-08T10:18:58.261Z,1299.38
2018-09-08T10:19:58.241Z,1366.88
2018-09-08T10:20:58.229Z,2745.00
2018-09-08T10:21:58.207Z,3161.25
2018-09-08T10:22:58.201Z,1355.63
2018-09-08T10:24:05.154Z,1395.00
2018-09-08T10:24:58.162Z,1305.00
2018-09-08T10:25:58.142Z,1181.25
2018-09-08T10:26:58.125Z,1344.38
2018-09-08T10:27:58.109Z,1231.88
2018-09-08T10:28:58.091Z,1293.75
2018-09-08T10:29:58.074Z,1698.75
2018-09-08T10:30:58.058Z,1074.38
2018-09-08T10:31:58.042Z,956.25
2018-09-08T10:32:58.024Z,877.50
2018-09-08T10:33:58.009Z,832.50
2018-09-08T10:34:57.990Z,815.63
2018-09-08T10:35:57.971Z,843.75
2018-09-08T10:36:57.954Z,900.00
2018-09-08T10:37:57.937Z,916.88
2018-09-08T10:38:57.918Z,922.50
2018-09-08T10:39:57.903Z,905.63
2018-09-08T10:40:57.884Z,888.75
2018-09-08T10:41:57.865Z,1001.25
2018-09-08T10:42:57.846Z,1473.75
2018-09-08T10:43:57.830Z,1434.38
2018-09-08T10:44:57.810Z,2491.88
2018-09-08T10:45:57.793Z,2576.25
2018-09-08T10:46:57.778Z,1153.13
2018-09-08T10:47:57.755Z,1046.25
2018-09-08T10:48:57.739Z,967.50
2018-09-08T10:49:57.720Z,900.00
2018-09-08T10:50:57.760Z,945.00
2018-09-08T10:51:57.685Z,1035.00
2018-09-08T10:52:57.666Z,1119.38
2018-09-08T10:53:57.648Z,1063.13
2018-09-08T10:54:57.632Z,950.63
2018-09-08T10:55:57.617Z,815.63
2018-09-08T10:56:57.595Z,781.88
2018-09-08T10:57:57.576Z,961.88
2018-09-08T10:58:57.558Z,911.25
2018-09-08T10:59:57.539Z,1023.75
2018-09-08T11:00:57.521Z,1310.63
2018-09-08T11:01:57.643Z,1400.63
2018-09-08T11:02:57.485Z,1333.13
2018-09-08T11:03:57.467Z,1085.63
2018-09-08T11:04:57.448Z,1001.25
2018-09-08T11:05:57.430Z,860.63
2018-09-08T11:06:57.412Z,776.25
2018-09-08T11:07:57.394Z,731.25
2018-09-08T11:08:57.375Z,697.50
2018-09-08T11:09:57.358Z,675.00
2018-09-08T11:10:57.338Z,680.63
2018-09-08T11:11:57.319Z,686.25
2018-09-08T11:12:57.301Z,675.00
2018-09-08T11:13:57.282Z,736.88
2018-09-08T11:14:57.263Z,2368.13
2018-09-08T11:15:57.246Z,2165.63
2018-09-08T11:16:57.226Z,2418.75
2018-09-08T11:17:57.207Z,2424.38
2018-09-08T11:18:57.280Z,2401.88
2018-09-08T11:19:57.173Z,2362.50
2018-09-08T11:20:57.154Z,2334.38
2018-09-08T11:21:57.134Z,2300.63
2018-09-08T11:22:57.116Z,2283.75
2018-09-08T11:23:57.100Z,2317.50
2018-09-08T11:24:57.082Z,2424.38
2018-09-08T11:25:57.063Z,2480.63
2018-09-08T11:26:57.047Z,2581.88
2018-09-08T11:27:57.031Z,2396.25
2018-09-08T11:28:57.013Z,2553.75
2018-09-08T11:29:56.994Z,2548.13
2018-09-08T11:30:56.984Z,787.50
2018-09-08T11:31:56.962Z,793.13
2018-09-08T11:32:56.945Z,826.88
2018-09-08T11:33:56.926Z,883.13
2018-09-08T11:34:56.911Z,984.38
2018-09-08T11:35:56.894Z,1192.50
2018-09-08T11:36:56.877Z,1479.38
2018-09-08T11:37:56.930Z,2115.00
2018-09-08T11:38:56.843Z,2070.00
2018-09-08T11:39:56.826Z,2643.75
2018-09-08T11:40:56.809Z,2508.75
2018-09-08T11:41:56.790Z,1732.50
2018-09-08T11:42:56.774Z,1468.13
2018-09-08T11:43:56.757Z,1209.38
2018-09-08T11:44:56.799Z,1215.00
2018-09-08T11:45:56.721Z,1237.50
2018-09-08T11:46:56.707Z,1372.50
2018-09-08T11:47:56.689Z,1366.88
2018-09-08T11:48:56.673Z,2480.63
2018-09-08T11:49:56.654Z,1530.00
2018-09-08T11:50:56.686Z,1333.13
2018-09-08T11:51:56.619Z,1378.13
2018-09-08T11:52:56.667Z,1794.38
2018-09-08T11:53:56.586Z,1203.75
2018-09-08T11:54:56.570Z,1096.88
2018-09-08T11:55:56.552Z,995.63
2018-09-08T11:56:56.535Z,950.63
2018-09-08T11:57:56.516Z,933.75
2018-09-08T11:58:56.500Z,950.63
2018-09-08T11:59:56.484Z,990.00
2018-09-08T12:00:56.465Z,1102.50
2018-09-08T12:01:56.447Z,1445.63
2018-09-08T12:02:56.446Z,1293.75
2018-09-08T12:03:56.413Z,1305.00
2018-09-08T12:04:56.395Z,1698.75
2018-09-08T12:05:56.377Z,1366.88
2018-09-08T12:06:56.359Z,1366.88
2018-09-08T12:07:56.371Z,1400.63
2018-09-08T12:08:56.325Z,1321.88
2018-09-08T12:09:56.304Z,1350.00
2018-09-08T12:10:56.289Z,1462.50
2018-09-08T12:11:56.270Z,2491.88
2018-09-08T12:12:56.254Z,1738.13
2018-09-08T12:13:56.288Z,2306.25
2018-09-08T12:14:56.217Z,1833.75
2018-09-08T12:15:56.201Z,1580.63
2018-09-08T12:16:56.185Z,1220.63
2018-09-08T12:17:56.165Z,1333.13
2018-09-08T12:18:56.166Z,1125.00
2018-09-08T12:19:56.132Z,1282.50
2018-09-08T12:20:56.118Z,1063.13
2018-09-08T12:21:56.097Z,1023.75
2018-09-08T12:22:56.079Z,990.00
2018-09-08T12:23:56.062Z,950.63
2018-09-08T12:24:56.045Z,888.75
2018-09-08T12:25:56.028Z,826.88
2018-09-08T12:26:56.008Z,810.00
2018-09-08T12:27:55.992Z,781.88
2018-09-08T12:28:55.975Z,742.50
2018-09-08T12:29:55.964Z,736.88
2018-09-08T12:30:55.958Z,770.63
2018-09-08T12:31:55.921Z,826.88
2018-09-08T12:32:55.904Z,849.38
2018-09-08T12:33:55.886Z,866.25
2018-09-08T12:34:55.868Z,888.75
2018-09-08T12:35:55.855Z,939.38
2018-09-08T12:36:55.842Z,1029.38